createdAt,value
2019-05-01T00:01:05.534Z,19.37
2019-05-01T00:03:52.610Z,19.67
2019-05-01T00:06:25.978Z,20.23
2019-05-01T00:08:54.995Z,20.57
2019-05-01T00:11:24.370Z,21.27
2019-05-01T00:13:53.546Z,21.50
2019-05-01T00:16:22.771Z,20.00
2019-05-01T00:18:51.919Z,20.90
2019-05-01T00:21:21.349Z,20.47
2019-05-01T00:23:50.413Z,20.87
2019-05-01T00:26:19.495Z,21.60
2019-05-01T00:28:48.730Z,20.53
2019-05-01T00:31:17.921Z,20.00
2019-05-01T00:33:47.003Z,21.80
2019-05-01T00:36:16.285Z,21.77
2019-05-01T00:38:45.511Z,21.63
2019-05-01T00:41:14.703Z,22.03
2019-05-01T00:43:44.127Z,22.07
2019-05-01T00:46:13.216Z,21.30
2019-05-01T00:48:42.285Z,23.33
2019-05-01T00:51:11.409Z,21.57
2019-05-01T00:53:40.717Z,23.60
2019-05-01T00:56:25.263Z,22.87
2019-05-01T00:59:11.163Z,22.57
2019-05-01T01:02:08.215Z,22.27
2019-05-01T01:04:37.581Z,24.30
2019-05-01T01:07:06.667Z,23.03
2019-05-01T01:09:36.008Z,22.80
2019-05-01T01:12:05.175Z,23.17
2019-05-01T01:14:34.189Z,23.33
2019-05-01T01:17:03.491Z,24.93
2019-05-01T01:19:32.592Z,23.07
2019-05-01T01:22:01.704Z,26.03
2019-05-01T01:24:31.168Z,23.70
2019-05-01T01:27:01.953Z,25.77
2019-05-01T01:29:31.178Z,25.77
2019-05-01T01:32:00.427Z,23.17
2019-05-01T01:34:29.784Z,24.93
2019-05-01T01:36:58.866Z,25.20
2019-05-01T01:39:28.218Z,24.43
2019-05-01T01:41:57.668Z,26.13
2019-05-01T01:44:49.010Z,25.67
2019-05-01T01:47:18.140Z,25.97
2019-05-01T01:49:47.704Z,23.77
2019-05-01T01:52:16.974Z,25.33
2019-05-01T01:54:46.250Z,24.97
2019-05-01T01:57:15.770Z,25.10
2019-05-01T01:59:45.192Z,23.37
2019-05-01T02:02:36.476Z,24.10
2019-05-01T02:05:11.945Z,23.67
2019-05-01T02:07:41.346Z,24.23
2019-05-01T02:10:10.682Z,24.50
2019-05-01T02:12:41.188Z,24.43
2019-05-01T02:15:10.684Z,23.97
2019-05-01T02:17:39.795Z,26.17
2019-05-01T02:20:09.552Z,25.77
2019-05-01T02:22:38.742Z,25.30
2019-05-01T02:25:09.612Z,25.17
2019-05-01T02:28:01.315Z,26.20
2019-05-01T02:30:30.771Z,26.37
2019-05-01T02:33:01.056Z,25.70
2019-05-01T02:35:31.131Z,24.47
2019-05-01T02:38:02.028Z,26.60
2019-05-01T02:40:52.189Z,25.97
2019-05-01T02:43:23.442Z,26.43
2019-05-01T02:45:57.800Z,25.63
2019-05-01T02:48:29.004Z,26.53
2019-05-01T02:51:01.680Z,25.57
2019-05-01T02:53:33.590Z,25.73
2019-05-01T02:56:32.488Z,26.33
2019-05-01T02:59:04.279Z,25.90
2019-05-01T03:01:46.647Z,26.23
2019-05-01T03:04:07.242Z,25.77
2019-05-01T03:06:37.778Z,26.13
2019-05-01T03:09:08.669Z,27.73
2019-05-01T03:11:40.065Z,26.27
2019-05-01T03:14:14.162Z,26.30
2019-05-01T03:16:44.567Z,27.73
2019-05-01T03:19:32.707Z,26.70
2019-05-01T03:22:09.061Z,26.17
2019-05-01T03:24:38.612Z,27.27
2019-05-01T03:27:07.869Z,27.33
2019-05-01T03:29:37.449Z,27.77
2019-05-01T03:32:18.285Z,26.53
2019-05-01T03:34:37.617Z,26.70
2019-05-01T03:37:06.907Z,27.97
2019-05-01T03:39:36.594Z,26.43
2019-05-01T03:42:05.710Z,27.83
2019-05-01T03:44:35.028Z,27.87
2019-05-01T03:47:04.319Z,28.27
2019-05-01T03:49:33.659Z,26.13
2019-05-01T03:52:03.344Z,28.40
2019-05-01T03:54:33.547Z,28.73
2019-05-01T03:57:02.824Z,28.40
2019-05-01T03:59:32.243Z,28.33
2019-05-01T04:02:09.849Z,29.10
2019-05-01T04:04:39.381Z,27.33
2019-05-01T04:07:08.547Z,28.40
2019-05-01T04:09:37.839Z,27.80
2019-05-01T04:12:07.761Z,26.80
2019-05-01T04:14:39.325Z,26.73
2019-05-01T04:17:21.896Z,27.70
2019-05-01T04:19:51.231Z,25.63
2019-05-01T04:22:20.409Z,27.27
2019-05-01T04:24:50.244Z,27.00
2019-05-01T04:27:27.879Z,28.93
2019-05-01T04:30:08.194Z,27.13
2019-05-01T04:32:52.017Z,28.57
2019-05-01T04:35:27.896Z,27.33
2019-05-01T04:37:58.904Z,27.83
2019-05-01T04:40:28.387Z,30.37
2019-05-01T04:42:58.150Z,32.73
2019-05-01T04:45:28.395Z,34.17
2019-05-01T04:47:57.530Z,33.13
2019-05-01T04:50:26.864Z,34.60
2019-05-01T04:52:56.287Z,34.63
2019-05-01T04:55:25.374Z,33.57
2019-05-01T04:57:54.775Z,33.40
2019-05-01T05:00:23.943Z,32.80
2019-05-01T05:03:06.051Z,32.40
2019-05-01T05:05:35.753Z,31.27
2019-05-01T05:08:04.893Z,32.47
2019-05-01T05:10:34.544Z,32.00
2019-05-01T05:13:28.219Z,30.43
2019-05-01T05:16:06.349Z,31.20
2019-05-01T05:18:35.728Z,30.50
2019-05-01T05:21:04.910Z,28.87
2019-05-01T05:23:34.615Z,26.90
2019-05-01T05:26:04.546Z,27.33
2019-05-01T05:28:36.436Z,29.23
2019-05-01T05:31:06.300Z,29.07
2019-05-01T05:33:38.420Z,27.87
2019-05-01T05:36:08.812Z,28.00
2019-05-01T05:38:54.527Z,26.10
2019-05-01T05:41:24.152Z,26.40
2019-05-01T05:43:53.538Z,26.73
2019-05-01T05:46:22.866Z,27.87
2019-05-01T05:48:52.272Z,27.23
2019-05-01T05:51:40.175Z,26.13
2019-05-01T05:54:29.600Z,27.20
2019-05-01T05:57:04.385Z,27.63
2019-05-01T05:59:37.530Z,27.63
2019-05-01T06:02:40.639Z,26.60
2019-05-01T06:05:20.518Z,28.70
2019-05-01T06:08:13.168Z,27.33
2019-05-01T06:11:01.054Z,26.43
2019-05-01T06:13:52.621Z,27.10
2019-05-01T06:16:29.133Z,23.63
2019-05-01T06:19:09.734Z,24.70
2019-05-01T06:21:44.831Z,23.60
2019-05-01T06:24:27.482Z,22.37
2019-05-01T06:26:57.103Z,23.80
2019-05-01T06:29:26.186Z,22.60
2019-05-01T06:31:58.799Z,23.90
2019-05-01T06:34:28.765Z,23.77
2019-05-01T06:36:58.085Z,23.53
2019-05-01T06:39:27.467Z,23.23
2019-05-01T06:41:56.777Z,20.37
2019-05-01T06:44:38.636Z,19.07
2019-05-01T06:47:14.195Z,18.47
2019-05-01T06:50:07.529Z,18.97
2019-05-01T06:52:38.510Z,18.50
2019-05-01T06:55:08.862Z,18.83
2019-05-01T06:57:43.532Z,18.37
2019-05-01T07:00:15.016Z,15.57
2019-05-01T07:02:44.895Z,16.67
2019-05-01T07:05:16.333Z,17.20
2019-05-01T07:07:48.068Z,16.50
2019-05-01T07:10:29.203Z,17.57
2019-05-01T07:12:48.712Z,15.27
2019-05-01T07:15:21.912Z,16.37
2019-05-01T07:17:49.225Z,18.17
2019-05-01T07:20:47.319Z,18.33
2019-05-01T07:23:18.686Z,18.33
2019-05-01T07:25:48.399Z,18.70
2019-05-01T07:28:17.604Z,19.17
2019-05-01T07:31:06.004Z,17.83
2019-05-01T07:33:36.031Z,17.83
2019-05-01T07:36:14.970Z,19.27
2019-05-01T07:38:40.373Z,17.77
2019-05-01T07:41:12.289Z,18.97
2019-05-01T07:44:03.092Z,20.30
2019-05-01T07:46:37.816Z,19.67
2019-05-01T07:49:06.889Z,19.10
2019-05-01T07:51:37.764Z,19.17
2019-05-01T07:54:08.987Z,17.70
2019-05-01T07:56:38.206Z,20.20
2019-05-01T07:59:07.404Z,19.37
2019-05-01T08:01:54.422Z,18.00
2019-05-01T08:04:35.763Z,19.60
2019-05-01T08:06:56.987Z,19.10
2019-05-01T08:09:25.881Z,20.67
2019-05-01T08:11:55.041Z,17.07
2019-05-01T08:14:24.468Z,16.83
2019-05-01T08:16:53.597Z,19.17
2019-05-01T08:19:27.967Z,17.33
2019-05-01T08:22:03.107Z,17.20
2019-05-01T08:24:32.384Z,17.20
2019-05-01T08:27:01.555Z,16.30
2019-05-01T08:29:52.724Z,17.43
2019-05-01T08:32:38.361Z,16.97
2019-05-01T08:35:08.613Z,16.40
2019-05-01T08:37:37.712Z,16.37
2019-05-01T08:40:08.055Z,14.53
2019-05-01T08:42:37.796Z,13.30
2019-05-01T08:45:40.919Z,13.53
2019-05-01T08:48:18.139Z,13.70
2019-05-01T08:50:47.240Z,13.77
2019-05-01T08:53:18.041Z,13.40
2019-05-01T08:55:50.323Z,14.37
2019-05-01T08:58:19.414Z,12.73
2019-05-01T09:00:48.609Z,14.07
2019-05-01T09:03:18.584Z,13.57
2019-05-01T09:05:52.301Z,14.10
2019-05-01T09:08:19.732Z,14.57
2019-05-01T09:10:49.758Z,13.43
2019-05-01T09:13:23.650Z,13.10
2019-05-01T09:15:50.054Z,13.10
2019-05-01T09:18:19.129Z,12.80
2019-05-01T09:20:51.023Z,13.77
2019-05-01T09:23:20.128Z,14.40
2019-05-01T09:25:58.888Z,12.50
2019-05-01T09:28:35.982Z,13.80
2019-05-01T09:31:04.186Z,13.40
2019-05-01T09:33:34.296Z,13.37
2019-05-01T09:36:03.681Z,13.50
2019-05-01T09:38:32.997Z,15.77
2019-05-01T09:41:02.211Z,14.27
2019-05-01T09:43:35.756Z,14.03
2019-05-01T09:46:02.232Z,11.17
2019-05-01T09:48:31.406Z,10.07
2019-05-01T09:51:10.812Z,10.57
2019-05-01T09:53:58.075Z,11.97
2019-05-01T09:56:27.591Z,12.93
2019-05-01T09:58:56.742Z,9.93
2019-05-01T10:01:31.718Z,9.77
2019-05-01T10:03:56.976Z,10.37
2019-05-01T10:06:26.384Z,10.23
2019-05-01T10:08:55.558Z,10.03
2019-05-01T10:11:24.833Z,10.43
2019-05-01T10:13:58.437Z,11.23
2019-05-01T10:16:24.802Z,11.73
2019-05-01T10:18:54.059Z,11.70
2019-05-01T10:21:27.280Z,12.10
2019-05-01T10:23:54.003Z,12.90
2019-05-01T10:26:25.472Z,12.20
2019-05-01T10:29:13.720Z,10.27
2019-05-01T10:32:02.752Z,9.80
2019-05-01T10:34:56.515Z,10.40
2019-05-01T10:37:28.473Z,10.07
2019-05-01T10:39:56.390Z,9.90
2019-05-01T10:42:25.495Z,9.93
2019-05-01T10:44:54.625Z,9.60
2019-05-01T10:47:23.727Z,9.33
2019-05-01T10:49:52.818Z,9.33
2019-05-01T10:52:22.248Z,9.30
2019-05-01T10:54:51.773Z,8.30
2019-05-01T10:57:20.862Z,9.07
2019-05-01T10:59:50.249Z,8.33
2019-05-01T11:02:19.763Z,8.53
2019-05-01T11:04:48.843Z,8.07
2019-05-01T11:07:18.140Z,8.97
2019-05-01T11:09:47.247Z,8.90
2019-05-01T11:12:16.491Z,8.90
2019-05-01T11:14:45.750Z,8.43
2019-05-01T11:17:14.826Z,9.00
2019-05-01T11:19:43.920Z,9.37
2019-05-01T11:22:13.248Z,9.73
2019-05-01T11:24:42.171Z,9.20
2019-05-01T11:27:11.333Z,9.07
2019-05-01T11:29:40.574Z,8.80
2019-05-01T11:32:34.568Z,8.87
2019-05-01T11:35:26.051Z,9.10
2019-05-01T11:38:32.706Z,9.50
2019-05-01T11:41:06.680Z,8.57
2019-05-01T11:43:35.842Z,7.77
2019-05-01T11:46:04.988Z,8.03
2019-05-01T11:48:34.308Z,8.67
2019-05-01T11:51:03.422Z,10.90
2019-05-01T11:53:32.670Z,10.83
2019-05-01T11:56:02.303Z,10.33
2019-05-01T11:58:31.587Z,9.53
2019-05-01T12:01:03.605Z,11.37
2019-05-01T12:03:32.693Z,11.07
2019-05-01T12:06:01.795Z,11.73
2019-05-01T12:08:30.863Z,11.10
2019-05-01T12:11:01.221Z,10.53
2019-05-01T12:13:43.037Z,10.73
2019-05-01T12:16:17.799Z,8.93
2019-05-01T12:18:46.888Z,9.13
2019-05-01T12:21:16.038Z,9.60
2019-05-01T12:23:45.163Z,9.33
2019-05-01T12:26:14.348Z,9.97
2019-05-01T12:28:43.435Z,9.83
2019-05-01T12:31:12.979Z,9.60
2019-05-01T12:33:42.080Z,10.23
2019-05-01T12:36:11.282Z,10.47
2019-05-01T12:38:40.781Z,10.93
2019-05-01T12:41:44.291Z,9.67
2019-05-01T12:44:13.653Z,9.33
2019-05-01T12:46:55.087Z,8.97
2019-05-01T12:49:24.239Z,8.40
2019-05-01T12:51:55.997Z,7.80
2019-05-01T12:54:35.839Z,7.83
2019-05-01T12:57:04.934Z,7.20
2019-05-01T12:59:34.105Z,7.23
2019-05-01T13:02:03.573Z,8.37
2019-05-01T13:04:32.770Z,9.00
2019-05-01T13:07:02.081Z,8.10
2019-05-01T13:09:31.163Z,9.37
2019-05-01T13:12:00.266Z,9.90
2019-05-01T13:14:30.848Z,9.53
2019-05-01T13:17:00.286Z,9.67
2019-05-01T13:19:29.412Z,9.70
2019-05-01T13:21:58.576Z,9.23
2019-05-01T13:24:27.722Z,9.30
2019-05-01T13:27:03.049Z,9.70
2019-05-01T13:29:37.443Z,10.17
2019-05-01T13:32:28.666Z,8.40
2019-05-01T13:34:58.064Z,6.77
2019-05-01T13:37:27.252Z,6.20
2019-05-01T13:39:56.356Z,5.87
2019-05-01T13:42:25.671Z,5.77
2019-05-01T13:44:54.752Z,6.57
2019-05-01T13:47:24.067Z,8.07
2019-05-01T13:49:53.342Z,7.37
2019-05-01T13:52:22.411Z,6.10
2019-05-01T13:54:51.556Z,6.57
2019-05-01T13:57:21.148Z,5.87
2019-05-01T13:59:50.343Z,5.70
2019-05-01T14:02:19.360Z,5.87
2019-05-01T14:04:48.830Z,5.43
2019-05-01T14:07:17.948Z,5.87
2019-05-01T14:09:47.054Z,5.20
2019-05-01T14:12:22.670Z,6.43
2019-05-01T14:14:51.753Z,5.00
2019-05-01T14:17:20.854Z,5.83
2019-05-01T14:19:59.401Z,4.63
2019-05-01T14:22:51.378Z,5.63
2019-05-01T14:25:20.544Z,5.60
2019-05-01T14:27:49.639Z,6.33
2019-05-01T14:30:18.703Z,5.40
2019-05-01T14:32:47.926Z,6.50
2019-05-01T14:35:17.103Z,4.90
2019-05-01T14:37:46.178Z,4.23
2019-05-01T14:40:15.759Z,4.70
2019-05-01T14:42:44.815Z,4.30
2019-05-01T14:45:14.075Z,3.47
2019-05-01T14:50:11.972Z,3.60
2019-05-01T14:52:40.990Z,4.47
2019-05-01T14:55:10.275Z,4.30
2019-05-01T14:57:39.487Z,3.37
2019-05-01T15:00:08.707Z,3.17
2019-05-01T15:02:37.758Z,3.70
2019-05-01T15:05:07.178Z,3.87
2019-05-01T15:07:43.431Z,3.50
2019-05-01T15:10:07.206Z,4.37
2019-05-01T15:12:36.441Z,3.77
2019-05-01T15:15:42.872Z,4.37
2019-05-01T15:18:21.150Z,4.93
2019-05-01T15:20:50.320Z,3.37
2019-05-01T15:23:19.395Z,3.53
2019-05-01T15:25:48.472Z,4.30
2019-05-01T15:28:17.572Z,3.87
2019-05-01T15:30:46.657Z,3.37
2019-05-01T15:33:15.959Z,4.30
2019-05-01T15:35:45.002Z,3.67
2019-05-01T15:38:14.078Z,3.80
2019-05-01T15:41:00.872Z,3.77
2019-05-01T15:43:31.561Z,3.10
2019-05-01T15:46:00.710Z,3.70
2019-05-01T15:48:29.982Z,3.93
2019-05-01T15:50:59.116Z,4.10
2019-05-01T15:53:28.218Z,4.53
2019-05-01T15:55:57.399Z,4.27
2019-05-01T15:58:26.490Z,4.57
2019-05-01T16:00:55.578Z,5.60
2019-05-01T16:03:24.706Z,4.90
2019-05-01T16:05:53.812Z,5.10
2019-05-01T16:08:23.137Z,3.70
2019-05-01T16:11:14.441Z,3.70
2019-05-01T16:13:43.616Z,4.47
2019-05-01T16:16:12.787Z,3.63
2019-05-01T16:18:42.063Z,3.70
2019-05-01T16:21:11.134Z,3.73
2019-05-01T16:23:40.379Z,4.30
2019-05-01T16:26:09.803Z,3.80
2019-05-01T16:28:38.996Z,4.07
2019-05-01T16:31:08.143Z,3.77
2019-05-01T16:33:37.391Z,4.00
2019-05-01T16:36:06.457Z,4.50
2019-05-01T16:38:53.130Z,5.40
2019-05-01T16:41:22.273Z,4.60
2019-05-01T16:43:51.188Z,4.70
2019-05-01T16:46:20.452Z,4.37
2019-05-01T16:48:49.586Z,5.03
2019-05-01T16:51:21.985Z,4.37
2019-05-01T16:53:51.119Z,4.03
2019-05-01T16:56:20.289Z,4.43
2019-05-01T16:58:49.703Z,4.13
2019-05-01T17:01:32.427Z,3.60
2019-05-01T17:04:20.044Z,3.60
2019-05-01T17:07:01.296Z,6.17
2019-05-01T17:09:52.509Z,7.40
2019-05-01T17:12:23.633Z,8.80
2019-05-01T17:14:52.973Z,8.30
2019-05-01T17:17:23.013Z,8.23
2019-05-01T17:19:51.991Z,9.30
2019-05-01T17:22:21.125Z,8.17
2019-05-01T17:24:50.367Z,8.10
2019-05-01T17:27:19.925Z,8.27
2019-05-01T17:29:49.193Z,8.87
2019-05-01T17:32:18.839Z,8.20
2019-05-01T17:34:47.931Z,9.40
2019-05-01T17:37:17.099Z,9.40
2019-05-01T17:39:46.197Z,7.03
2019-05-01T17:42:15.170Z,5.97
2019-05-01T17:44:44.606Z,5.47
2019-05-01T17:47:17.837Z,4.90
2019-05-01T17:49:45.961Z,5.43
2019-05-01T17:52:15.362Z,4.87
2019-05-01T17:54:44.508Z,4.67
2019-05-01T17:57:14.014Z,5.37
2019-05-01T17:59:44.070Z,6.63
2019-05-01T18:02:26.667Z,6.87
2019-05-01T18:05:01.526Z,7.77
2019-05-01T18:07:33.317Z,7.80
2019-05-01T18:10:06.478Z,8.87
2019-05-01T18:12:35.578Z,7.20
2019-05-01T18:15:05.559Z,7.43
2019-05-01T18:17:34.841Z,7.33
2019-05-01T18:20:04.164Z,8.57
2019-05-01T18:22:51.339Z,8.23
2019-05-01T18:25:28.178Z,8.90
2019-05-01T18:28:16.646Z,10.13
2019-05-01T18:30:45.783Z,9.77
2019-05-01T18:33:14.887Z,9.50
2019-05-01T18:35:44.967Z,9.23
2019-05-01T18:38:36.990Z,10.40
2019-05-01T18:41:11.097Z,10.90
2019-05-01T18:43:40.336Z,12.97
2019-05-01T18:46:10.959Z,11.93
2019-05-01T18:48:40.057Z,12.13
2019-05-01T18:51:09.136Z,10.90
2019-05-01T18:53:38.228Z,10.23
2019-05-01T18:56:07.354Z,10.30
2019-05-01T18:58:36.424Z,10.47
2019-05-01T19:01:09.174Z,11.03
2019-05-01T19:03:37.139Z,10.67
2019-05-01T19:06:07.180Z,11.53
2019-05-01T19:08:36.298Z,11.00
2019-05-01T19:11:12.381Z,11.03
2019-05-01T19:13:36.424Z,11.43
2019-05-01T19:16:08.377Z,11.53
2019-05-01T19:18:36.707Z,10.87
2019-05-01T19:21:06.194Z,11.13
2019-05-01T19:23:35.449Z,10.83
2019-05-01T19:26:06.635Z,10.40
2019-05-01T19:28:35.987Z,11.87
2019-05-01T19:31:05.418Z,11.23
2019-05-01T19:33:34.674Z,11.57
2019-05-01T19:36:08.337Z,11.93
2019-05-01T19:38:36.889Z,12.03
2019-05-01T19:41:08.939Z,11.37
2019-05-01T19:43:40.401Z,12.03
2019-05-01T19:46:07.998Z,12.17
2019-05-01T19:48:37.144Z,11.63
2019-05-01T19:51:06.384Z,14.07
2019-05-01T19:53:35.529Z,14.40
2019-05-01T19:56:04.614Z,14.70
2019-05-01T19:58:34.039Z,13.97
2019-05-01T20:01:05.360Z,12.77
2019-05-01T20:03:36.804Z,13.53
2019-05-01T20:06:07.840Z,13.03
2019-05-01T20:08:36.545Z,12.07
2019-05-01T20:11:05.687Z,11.67
2019-05-01T20:13:36.737Z,11.63
2019-05-01T20:16:07.966Z,11.90
2019-05-01T20:18:37.573Z,12.23
2019-05-01T20:21:07.067Z,13.70
2019-05-01T20:23:36.081Z,14.27
2019-05-01T20:26:05.555Z,15.30
2019-05-01T20:28:34.589Z,14.07
2019-05-01T20:31:04.177Z,14.30
2019-05-01T20:33:39.099Z,14.07
2019-05-01T20:36:05.098Z,13.43
2019-05-01T20:38:35.538Z,13.53
2019-05-01T20:41:04.665Z,14.43
2019-05-01T20:43:38.118Z,14.53
2019-05-01T20:46:06.940Z,13.37
2019-05-01T20:48:35.535Z,13.80
2019-05-01T20:51:05.105Z,13.47
2019-05-01T20:53:34.295Z,13.03
2019-05-01T20:56:09.970Z,13.77
2019-05-01T20:58:39.051Z,12.13
2019-05-01T21:01:08.214Z,13.53
2019-05-01T21:03:39.183Z,13.77
2019-05-01T21:06:17.625Z,15.07
2019-05-01T21:08:50.958Z,14.30
2019-05-01T21:11:24.060Z,14.50
2019-05-01T21:13:54.951Z,14.87
2019-05-01T21:16:24.197Z,15.13
2019-05-01T21:18:53.303Z,14.10
2019-05-01T21:21:24.064Z,14.77
2019-05-01T21:23:56.654Z,14.73
2019-05-01T21:26:24.158Z,13.93
2019-05-01T21:28:54.111Z,15.40
2019-05-01T21:31:25.965Z,16.03
2019-05-01T21:33:55.054Z,15.93
2019-05-01T21:36:24.382Z,16.50
2019-05-01T21:38:53.603Z,16.37
2019-05-01T21:41:22.671Z,17.23
2019-05-01T21:43:52.941Z,15.13
2019-05-01T21:46:22.794Z,16.87
2019-05-01T21:48:53.559Z,15.50
2019-05-01T21:51:23.029Z,16.00
2019-05-01T21:53:52.927Z,16.70
2019-05-01T21:56:22.189Z,16.67
2019-05-01T21:58:51.247Z,16.00
2019-05-01T22:01:20.319Z,15.97
2019-05-01T22:03:52.558Z,15.37
2019-05-01T22:06:20.460Z,15.73
2019-05-01T22:08:49.560Z,16.67
2019-05-01T22:11:18.690Z,16.30
2019-05-01T22:13:47.946Z,15.90
2019-05-01T22:16:22.384Z,17.27
2019-05-01T22:19:04.366Z,15.63
2019-05-01T22:21:42.220Z,16.33
2019-05-01T22:24:19.346Z,16.07
2019-05-01T22:27:01.960Z,15.83
2019-05-01T22:29:34.188Z,15.40
2019-05-01T22:32:10.840Z,15.80
2019-05-01T22:34:49.875Z,15.83
2019-05-01T22:37:19.214Z,15.67
2019-05-01T22:39:52.462Z,16.67
2019-05-01T22:42:21.526Z,16.10
2019-05-01T22:44:50.691Z,16.10
2019-05-01T22:49:48.190Z,16.63
2019-05-01T22:52:17.508Z,16.20
2019-05-01T22:54:48.950Z,17.10
2019-05-01T22:57:19.099Z,16.43
2019-05-01T22:59:48.478Z,16.73
2019-05-01T23:02:28.386Z,16.40
2019-05-01T23:04:56.128Z,16.53
2019-05-01T23:07:26.197Z,16.63
2019-05-01T23:09:59.273Z,16.97
2019-05-01T23:12:26.161Z,15.77
2019-05-01T23:14:55.836Z,15.70
2019-05-01T23:17:34.849Z,15.77
2019-05-01T23:20:04.099Z,16.67
2019-05-01T23:22:33.123Z,15.57
2019-05-01T23:25:02.227Z,16.30
2019-05-01T23:27:32.173Z,15.63
2019-05-01T23:30:01.247Z,16.27
2019-05-01T23:32:30.244Z,15.50
2019-05-01T23:34:59.597Z,15.40
2019-05-01T23:37:28.759Z,14.90
2019-05-01T23:39:57.841Z,15.30
2019-05-01T23:42:27.253Z,15.13
2019-05-01T23:44:56.397Z,14.70
2019-05-01T23:47:25.570Z,14.63
2019-05-01T23:49:54.849Z,14.07
2019-05-01T23:52:24.001Z,13.83
2019-05-01T23:54:53.103Z,14.03
2019-05-01T23:57:22.346Z,13.43
2019-05-01T23:59:51.498Z,12.20
